Time;durP1;ratioP1;P1;durP2;ratioP2;P2;SDS_P1;SDS_P2;PMS_P1;PMS_P2;Temp;Humidity;BMP_temperature;BMP_pressure;BME280_temperature;BME280_humidity;BME280_pressure;Samples;Min_cycle;Max_cycle;Signal;HPM_P1;HPM_P2
2020/12/07 00:00:18;;;;;;;1.55;1.23;;;6.20;99.90;;;;;;5112704;28;20183;-71
2020/12/07 00:02:44;;;;;;;0.28;0.28;;;6.20;99.90;;;;;;5112336;28;20217;-71
2020/12/07 00:05:11;;;;;;;2.83;1.30;;;6.20;99.90;;;;;;5112407;28;20187;-71
2020/12/07 00:07:36;;;;;;;0.28;0.28;;;6.20;99.90;;;;;;5112490;28;20652;-70
2020/12/07 00:10:04;;;;;;;0.52;0.52;;;6.30;99.90;;;;;;5110997;28;20174;-70
2020/12/07 00:12:32;;;;;;;1.02;1.02;;;6.30;99.90;;;;;;5112295;28;20647;-71
2020/12/07 00:14:58;;;;;;;0.63;0.63;;;6.30;99.90;;;;;;5110946;28;20643;-71
2020/12/07 00:17:28;;;;;;;0.38;0.38;;;6.40;99.90;;;;;;5110918;28;20179;-71
2020/12/07 00:19:54;;;;;;;1.00;1.00;;;6.50;99.90;;;;;;5112122;28;20164;-70
2020/12/07 00:22:28;;;;;;;0.52;0.52;;;6.50;99.90;;;;;;5112155;28;20691;-71
2020/12/07 00:24:56;;;;;;;0.77;0.77;;;6.40;99.90;;;;;;5110586;28;20262;-71
2020/12/07 00:27:24;;;;;;;0.77;0.77;;;6.40;99.90;;;;;;5110730;28;20163;-70
2020/12/07 00:29:51;;;;;;;4.13;2.85;;;6.40;99.90;;;;;;5111977;28;20209;-71
2020/12/07 00:32:18;;;;;;;0.85;0.77;;;6.30;99.90;;;;;;5110646;28;20195;-71
2020/12/07 00:34:44;;;;;;;1.05;0.93;;;6.30;99.90;;;;;;5111997;28;20658;-70
2020/12/07 00:37:11;;;;;;;0.55;0.55;;;6.20;99.90;;;;;;5111793;28;20159;-70
2020/12/07 00:39:38;;;;;;;0.90;0.90;;;6.20;99.90;;;;;;5110235;28;20252;-71
2020/12/07 00:42:05;;;;;;;0.55;0.55;;;6.30;99.90;;;;;;5111592;28;20180;-71
2020/12/07 00:44:31;;;;;;;0.85;0.85;;;6.30;99.90;;;;;;5111136;28;20187;-71
2020/12/07 00:46:57;;;;;;;1.10;1.08;;;6.20;99.90;;;;;;5111763;28;20155;-71
2020/12/07 00:49:23;;;;;;;0.55;0.55;;;6.20;99.90;;;;;;5111590;28;20151;-71
2020/12/07 00:51:49;;;;;;;2.05;1.95;;;6.10;99.90;;;;;;5111574;28;20156;-71
2020/12/07 00:54:18;;;;;;;1.88;1.75;;;6.10;99.90;;;;;;5110124;28;20224;-71
2020/12/07 00:56:44;;;;;;;0.20;0.20;;;6.10;99.90;;;;;;5111449;28;20163;-71
2020/12/07 00:59:10;;;;;;;1.42;1.40;;;6.10;99.90;;;;;;5111374;28;20159;-71
2020/12/07 01:01:37;;;;;;;1.05;1.05;;;6.20;99.90;;;;;;5111284;28;20167;-71
2020/12/07 01:04:04;;;;;;;0.65;0.65;;;6.20;99.90;;;;;;5109840;28;20203;-71
2020/12/07 01:06:33;;;;;;;1.50;0.70;;;6.20;99.90;;;;;;5111293;28;20160;-70
2020/12/07 01:09:00;;;;;;;1.40;1.30;;;6.20;99.90;;;;;;5111285;28;20241;-70
2020/12/07 01:11:26;;;;;;;2.67;2.50;;;6.20;99.90;;;;;;5111068;28;20156;-71
2020/12/07 01:13:52;;;;;;;0.20;0.20;;;6.20;99.90;;;;;;5109711;28;20229;-70
2020/12/07 01:16:25;;;;;;;0.30;0.30;;;6.20;99.90;;;;;;5109748;28;20179;-70
2020/12/07 01:18:51;;;;;;;1.45;1.35;;;6.20;99.90;;;;;;5111091;28;20155;-70
2020/12/07 01:21:18;;;;;;;1.08;1.00;;;6.10;99.90;;;;;;5110993;28;20159;-70
2020/12/07 01:23:45;;;;;;;0.45;0.45;;;6.10;99.90;;;;;;5109474;28;20229;-70
2020/12/07 01:26:12;;;;;;;0.30;0.30;;;6.10;99.90;;;;;;5109606;28;20167;-71
2020/12/07 01:28:38;;;;;;;0.85;0.85;;;6.10;99.90;;;;;;5110785;28;20152;-71
2020/12/07 01:31:04;;;;;;;1.23;1.13;;;6.10;99.90;;;;;;5110697;28;20155;-70
2020/12/07 01:33:30;;;;;;;0.30;0.30;;;6.10;99.90;;;;;;5110618;28;20712;-71
2020/12/07 01:35:56;;;;;;;0.40;0.40;;;6.00;99.90;;;;;;5110770;28;20549;-71
2020/12/07 01:38:22;;;;;;;0.32;0.32;;;6.10;99.90;;;;;;5110574;28;20166;-70
2020/12/07 01:40:49;;;;;;;0.50;0.50;;;6.10;99.90;;;;;;5110361;28;20306;-70
2020/12/07 01:43:17;;;;;;;0.30;0.30;;;6.10;99.90;;;;;;5110379;28;20332;-70
2020/12/07 01:45:43;;;;;;;0.45;0.45;;;6.20;99.90;;;;;;5110521;28;20159;-71
2020/12/07 01:48:09;;;;;;;0.20;0.20;;;6.10;99.90;;;;;;5110481;28;20155;-71
2020/12/07 01:50:40;;;;;;;0.63;0.63;;;6.10;99.90;;;;;;5109078;28;20224;-71
2020/12/07 01:53:07;;;;;;;0.82;0.82;;;6.10;99.90;;;;;;5110376;28;20191;-70
2020/12/07 01:55:32;;;;;;;0.40;0.40;;;6.10;99.90;;;;;;5110006;28;20159;-70
2020/12/07 01:57:58;;;;;;;1.80;1.20;;;6.10;99.90;;;;;;5109790;28;20156;-71
2020/12/07 02:00:25;;;;;;;0.60;0.60;;;6.10;99.90;;;;;;5110214;28;20219;-71
2020/12/07 02:02:51;;;;;;;0.73;0.73;;;6.00;99.90;;;;;;5110149;28;20250;-71
2020/12/07 02:05:18;;;;;;;0.20;0.20;;;6.00;99.90;;;;;;5110068;28;20271;-71
2020/12/07 02:07:45;;;;;;;1.85;0.80;;;6.00;99.90;;;;;;5110085;28;20175;-71
2020/12/07 02:10:11;;;;;;;1.00;1.00;;;6.00;99.90;;;;;;5110113;28;20199;-71
2020/12/07 02:12:37;;;;;;;0.28;0.28;;;5.90;99.90;;;;;;5110038;28;20183;-71
2020/12/07 02:15:03;;;;;;;0.20;0.20;;;5.90;99.90;;;;;;5108673;28;20171;-70
2020/12/07 02:17:29;;;;;;;0.40;0.40;;;6.00;99.90;;;;;;5109996;28;20222;-71
2020/12/07 02:19:55;;;;;;;1.23;1.23;;;6.00;99.90;;;;;;5108521;28;20179;-71
2020/12/07 02:22:21;;;;;;;1.65;0.80;;;6.00;99.90;;;;;;5108550;28;20195;-70
2020/12/07 02:24:46;;;;;;;0.73;0.73;;;6.10;99.90;;;;;;5110015;28;20199;-70
2020/12/07 02:27:12;;;;;;;0.98;0.52;;;6.10;99.90;;;;;;5108504;28;20185;-71
2020/12/07 02:29:38;;;;;;;0.52;0.52;;;6.00;99.90;;;;;;5109790;28;20170;-70
2020/12/07 02:32:15;;;;;;;1.00;1.00;;;6.00;99.90;;;;;;5108311;28;20171;-70
2020/12/07 02:34:42;;;;;;;0.57;0.57;;;6.00;99.90;;;;;;5109808;28;20162;-71
2020/12/07 02:37:09;;;;;;;0.80;0.80;;;6.00;99.90;;;;;;5109867;28;20183;-71
2020/12/07 02:39:36;;;;;;;1.63;1.52;;;6.00;99.90;;;;;;5109515;28;20245;-71
2020/12/07 02:42:06;;;;;;;1.80;1.70;;;6.00;99.90;;;;;;5108306;28;20197;-70
2020/12/07 02:44:32;;;;;;;1.65;1.65;;;6.00;99.90;;;;;;5109548;28;20188;-71
2020/12/07 02:46:58;;;;;;;0.90;0.75;;;6.00;99.90;;;;;;5109516;28;20160;-71
2020/12/07 02:49:27;;;;;;;0.98;0.98;;;5.90;99.90;;;;;;5109648;28;20171;-71
2020/12/07 02:51:53;;;;;;;0.70;0.70;;;6.00;99.90;;;;;;5109562;28;20167;-70
2020/12/07 02:54:19;;;;;;;0.85;0.85;;;6.00;99.90;;;;;;5108104;28;20199;-71
2020/12/07 02:56:45;;;;;;;0.50;0.50;;;6.00;99.90;;;;;;5109496;28;20205;-71
2020/12/07 02:59:10;;;;;;;0.73;0.57;;;6.00;99.90;;;;;;5109639;28;20163;-70
2020/12/07 03:01:36;;;;;;;0.85;0.85;;;6.00;99.90;;;;;;5108112;28;20250;-70
2020/12/07 03:04:02;;;;;;;0.95;0.93;;;5.90;99.90;;;;;;5109266;28;20209;-71
2020/12/07 03:06:28;;;;;;;1.10;0.57;;;5.90;99.90;;;;;;5109373;28;20167;-71
2020/12/07 03:08:55;;;;;;;0.28;0.28;;;5.90;99.90;;;;;;5111283;28;20172;-71
2020/12/07 03:11:22;;;;;;;0.15;0.15;;;5.90;99.90;;;;;;5113449;28;20147;-71
2020/12/07 03:13:48;;;;;;;1.08;1.02;;;5.80;99.90;;;;;;5113553;28;20191;-71
2020/12/07 03:16:15;;;;;;;1.85;1.77;;;5.80;99.90;;;;;;5113364;28;20170;-70
2020/12/07 03:18:41;;;;;;;0.15;0.15;;;5.90;99.90;;;;;;5111987;28;20172;-71
2020/12/07 03:21:07;;;;;;;0.47;0.47;;;5.80;99.90;;;;;;5113402;28;20167;-71
2020/12/07 03:23:33;;;;;;;0.65;0.65;;;5.80;99.90;;;;;;5113118;28;20278;-71
2020/12/07 03:25:59;;;;;;;0.20;0.20;;;5.80;99.90;;;;;;5111819;28;20178;-71
2020/12/07 03:28:25;;;;;;;0.85;0.85;;;5.80;99.90;;;;;;5111818;28;20175;-71
2020/12/07 03:30:51;;;;;;;1.15;1.15;;;5.80;99.90;;;;;;5113098;28;20215;-70
2020/12/07 03:33:17;;;;;;;0.30;0.30;;;5.90;99.90;;;;;;5112762;28;20187;-71
2020/12/07 03:35:42;;;;;;;0.75;0.75;;;5.90;99.90;;;;;;5111487;28;20182;-71
2020/12/07 03:38:08;;;;;;;0.80;0.80;;;6.00;99.90;;;;;;5112921;28;20152;-71
2020/12/07 03:40:37;;;;;;;0.60;0.60;;;5.90;99.90;;;;;;5112605;28;20223;-71
2020/12/07 03:43:03;;;;;;;0.65;0.65;;;5.90;99.90;;;;;;5111448;28;20258;-71
2020/12/07 03:45:29;;;;;;;1.05;1.05;;;5.80;99.90;;;;;;5112420;28;20183;-71
2020/12/07 03:47:55;;;;;;;2.05;0.90;;;5.90;99.90;;;;;;5112575;28;20175;-71
2020/12/07 03:50:21;;;;;;;0.77;0.77;;;5.80;99.90;;;;;;5112524;28;20197;-71
2020/12/07 03:52:46;;;;;;;1.17;1.17;;;5.80;99.90;;;;;;5112483;28;20214;-70
2020/12/07 03:55:12;;;;;;;0.93;0.93;;;5.80;99.90;;;;;;5111056;28;20167;-74
2020/12/07 03:57:39;;;;;;;0.73;0.73;;;5.80;99.90;;;;;;5112540;28;20160;-75
2020/12/07 04:00:07;;;;;;;0.52;0.52;;;5.80;99.90;;;;;;5112276;28;20215;-71
2020/12/07 04:02:34;;;;;;;0.60;0.57;;;5.90;99.90;;;;;;5112313;28;20191;-70
2020/12/07 04:05:11;;;;;;;3.60;1.33;;;5.90;99.90;;;;;;5112309;28;20210;-70
2020/12/07 04:07:37;;;;;;;0.93;0.93;;;5.90;99.90;;;;;;5110759;28;20238;-71
2020/12/07 04:10:03;;;;;;;1.50;1.40;;;5.90;99.90;;;;;;5110723;28;20167;-70
2020/12/07 04:12:29;;;;;;;0.20;0.20;;;5.90;99.90;;;;;;5112166;28;20196;-70
2020/12/07 04:14:54;;;;;;;1.27;1.10;;;5.90;99.90;;;;;;5112008;28;20171;-70
2020/12/07 04:17:20;;;;;;;0.45;0.45;;;5.80;99.90;;;;;;5112043;28;20167;-70
2020/12/07 04:19:46;;;;;;;0.80;0.77;;;5.80;99.90;;;;;;5110991;28;20197;-70
2020/12/07 04:22:12;;;;;;;0.20;0.20;;;5.70;99.90;;;;;;5111902;28;20155;-70
2020/12/07 04:24:38;;;;;;;1.20;1.20;;;5.80;99.90;;;;;;5111983;28;20194;-70
2020/12/07 04:27:04;;;;;;;0.10;0.10;;;5.80;99.90;;;;;;5111942;28;20213;-70
2020/12/07 04:29:29;;;;;;;0.20;0.20;;;5.80;99.90;;;;;;5112121;28;20162;-70
2020/12/07 04:31:55;;;;;;;2.65;0.52;;;5.80;99.90;;;;;;5111862;28;20523;-70
2020/12/07 04:34:21;;;;;;;0.45;0.45;;;5.80;99.90;;;;;;5111967;28;20169;-70
2020/12/07 04:36:47;;;;;;;0.75;0.75;;;5.70;99.90;;;;;;5111836;28;20175;-70
2020/12/07 04:39:13;;;;;;;0.57;0.57;;;5.70;99.90;;;;;;5111443;28;20159;-71
2020/12/07 04:41:42;;;;;;;0.20;0.20;;;5.70;99.90;;;;;;5110209;28;20183;-70
2020/12/07 04:44:09;;;;;;;0.20;0.20;;;5.60;99.90;;;;;;5110148;28;20290;-70
2020/12/07 04:46:36;;;;;;;0.30;0.30;;;5.70;99.90;;;;;;5111673;28;20251;-70
2020/12/07 04:49:02;;;;;;;0.10;0.10;;;5.70;99.90;;;;;;5111317;28;20152;-69
2020/12/07 04:51:31;;;;;;;1.15;0.98;;;5.70;99.90;;;;;;5111263;28;20152;-70
2020/12/07 04:53:59;;;;;;;1.15;1.10;;;5.70;99.90;;;;;;5110736;28;20252;-70
2020/12/07 04:56:26;;;;;;;1.00;1.00;;;5.70;99.90;;;;;;5109921;28;20194;-70
2020/12/07 04:58:53;;;;;;;1.42;0.73;;;5.70;99.90;;;;;;5111090;28;20163;-70
2020/12/07 05:01:19;;;;;;;0.20;0.20;;;5.70;99.90;;;;;;5111093;28;20227;-70
2020/12/07 05:03:45;;;;;;;0.10;0.10;;;5.70;99.90;;;;;;5110599;28;20203;-70
2020/12/07 05:06:14;;;;;;;0.30;0.30;;;5.70;99.90;;;;;;5109898;28;20186;-70
2020/12/07 05:08:40;;;;;;;0.43;0.43;;;5.70;99.90;;;;;;5109576;28;20239;-70
2020/12/07 05:11:06;;;;;;;1.40;1.40;;;5.70;99.90;;;;;;5110599;28;20160;-70
2020/12/07 05:14:01;;;;;;;1.08;1.08;;;5.60;99.90;;;;;;5110672;28;20217;-70
2020/12/07 05:16:24;;;;;;;0.40;0.40;;;5.60;99.90;;;;;;5110123;28;20183;-70
2020/12/07 05:18:50;;;;;;;0.47;0.47;;;5.60;99.90;;;;;;5110417;28;20201;-70
2020/12/07 05:21:17;;;;;;;0.10;0.10;;;5.60;99.90;;;;;;5108665;28;20175;-70
2020/12/07 05:23:47;;;;;;;0.55;0.55;;;5.70;99.90;;;;;;5109838;28;20221;-70
2020/12/07 05:26:15;;;;;;;0.08;0.08;;;5.70;99.90;;;;;;5109657;28;20167;-70
2020/12/07 05:28:47;;;;;;;0.63;0.63;;;5.80;99.90;;;;;;5110478;28;20155;-70
2020/12/07 05:31:24;;;;;;;0.45;0.45;;;5.80;99.90;;;;;;5110183;28;20167;-70
2020/12/07 05:33:50;;;;;;;0.20;0.20;;;5.80;99.90;;;;;;5108875;28;20202;-70
2020/12/07 05:36:18;;;;;;;0.10;0.10;;;5.90;99.90;;;;;;5110685;28;20185;-70
2020/12/07 05:38:45;;;;;;;0.08;0.08;;;5.90;99.90;;;;;;5108863;28;20168;-70
2020/12/07 05:41:11;;;;;;;1.08;1.00;;;5.90;99.90;;;;;;5109853;28;20219;-70
2020/12/07 05:43:39;;;;;;;2.17;0.90;;;5.90;99.90;;;;;;5108284;28;20222;-70
2020/12/07 05:46:06;;;;;;;0.32;0.32;;;5.90;99.90;;;;;;5108299;28;20198;-70
2020/12/07 05:48:35;;;;;;;0.50;0.50;;;5.90;99.90;;;;;;5110206;28;20167;-70
2020/12/07 05:51:06;;;;;;;0.73;0.57;;;5.90;99.90;;;;;;5108469;28;20174;-69
2020/12/07 05:53:40;;;;;;;0.20;0.20;;;6.00;99.90;;;;;;5108212;28;20194;-70
2020/12/07 05:56:09;;;;;;;0.60;0.60;;;6.00;99.90;;;;;;5109770;28;20155;-70
2020/12/07 05:58:47;;;;;;;1.20;0.85;;;5.90;99.90;;;;;;5108595;28;20178;-70
2020/12/07 06:01:17;;;;;;;1.00;0.88;;;5.90;99.90;;;;;;5108575;28;20486;-70
2020/12/07 06:03:43;;;;;;;0.13;0.13;;;6.00;99.90;;;;;;5108214;28;20219;-70
2020/12/07 06:06:09;;;;;;;0.15;0.15;;;6.00;99.90;;;;;;5107844;28;20168;-69
2020/12/07 06:08:37;;;;;;;0.30;0.30;;;6.00;99.90;;;;;;5108313;28;20182;-70
2020/12/07 06:11:12;;;;;;;0.03;0.03;;;6.00;99.90;;;;;;5109436;28;20152;-70
2020/12/07 06:13:39;;;;;;;0.38;0.38;;;6.00;99.90;;;;;;5107752;28;20194;-70
2020/12/07 06:16:07;;;;;;;1.27;0.90;;;6.00;99.90;;;;;;5109544;28;20170;-70
2020/12/07 06:18:34;;;;;;;0.25;0.25;;;6.00;99.90;;;;;;5107502;28;20568;-70
2020/12/07 06:21:17;;;;;;;0.40;0.40;;;6.10;99.90;;;;;;5109342;28;20151;-69
2020/12/07 06:23:46;;;;;;;1.15;1.15;;;6.00;99.90;;;;;;5108833;28;20225;-70
2020/12/07 06:26:14;;;;;;;0.10;0.10;;;5.90;99.90;;;;;;5109587;28;20155;-71
2020/12/07 06:28:42;;;;;;;0.98;0.95;;;5.90;99.90;;;;;;5109496;28;20156;-69
2020/12/07 06:31:20;;;;;;;0.10;0.10;;;5.90;99.90;;;;;;5109365;28;20151;-70
2020/12/07 06:33:51;;;;;;;1.27;1.27;;;6.00;99.90;;;;;;5107993;28;20198;-70
2020/12/07 06:36:34;;;;;;;0.10;0.10;;;6.00;99.90;;;;;;5109527;28;20163;-70
2020/12/07 06:39:00;;;;;;;0.10;0.10;;;6.00;99.90;;;;;;5109164;28;20204;-71
2020/12/07 06:41:44;;;;;;;0.90;0.82;;;6.00;99.90;;;;;;5109054;28;20279;-69
2020/12/07 06:44:19;;;;;;;0.57;0.57;;;6.00;99.90;;;;;;5108536;28;20199;-70
2020/12/07 06:47:00;;;;;;;0.20;0.20;;;6.00;99.90;;;;;;5108938;28;20182;-71
2020/12/07 06:49:34;;;;;;;0.47;0.47;;;6.00;99.90;;;;;;5109238;28;20154;-71
2020/12/07 06:52:10;;;;;;;0.10;0.10;;;6.00;99.90;;;;;;5107143;28;20508;-70
2020/12/07 06:57:29;;;;;;;1.17;1.17;;;5.90;99.90;;;;;;5109032;28;20233;-70
2020/12/07 07:00:00;;;;;;;0.40;0.40;;;6.00;99.90;;;;;;5107552;28;20177;-71
2020/12/07 07:02:28;;;;;;;0.10;0.10;;;6.00;99.90;;;;;;5108671;28;20363;-71
2020/12/07 07:04:55;;;;;;;0.90;0.73;;;6.00;99.90;;;;;;5108610;28;20294;-71
2020/12/07 07:07:26;;;;;;;0.10;0.10;;;6.10;99.90;;;;;;5108767;28;20182;-71
2020/12/07 07:09:53;;;;;;;0.10;0.10;;;6.10;99.90;;;;;;5108408;28;20148;-70
2020/12/07 07:12:20;;;;;;;0.52;0.43;;;6.10;99.90;;;;;;5109150;28;20484;-70
2020/12/07 07:14:48;;;;;;;0.60;0.60;;;6.10;99.90;;;;;;5106670;28;20179;-70
2020/12/07 07:17:15;;;;;;;0.30;0.30;;;6.10;99.90;;;;;;5108925;28;20168;-70
2020/12/07 07:19:42;;;;;;;0.60;0.60;;;6.10;99.90;;;;;;5107511;28;20225;-70
2020/12/07 07:22:09;;;;;;;0.38;0.38;;;6.20;99.90;;;;;;5108647;28;20163;-70
2020/12/07 07:24:44;;;;;;;0.55;0.55;;;6.20;99.90;;;;;;5108938;28;20207;-70
2020/12/07 07:29:56;;;;;;;1.05;1.05;;;6.20;99.90;;;;;;5088244;28;20213;-70
2020/12/07 07:32:23;;;;;;;0.43;0.43;;;6.20;99.90;;;;;;5088436;28;20183;-70
2020/12/07 07:34:49;;;;;;;0.30;0.30;;;6.20;99.90;;;;;;5088425;28;20167;-70
2020/12/07 07:37:16;;;;;;;1.08;0.63;;;6.30;99.90;;;;;;5086963;28;20183;-71
2020/12/07 07:39:43;;;;;;;0.85;0.85;;;6.30;99.90;;;;;;5088240;28;20232;-70
2020/12/07 07:42:12;;;;;;;0.45;0.45;;;6.30;99.90;;;;;;5088356;28;20177;-70
2020/12/07 07:44:41;;;;;;;0.75;0.75;;;6.30;99.90;;;;;;5088552;28;20581;-70
2020/12/07 07:47:13;;;;;;;0.10;0.10;;;6.30;99.90;;;;;;5088571;28;20156;-71
2020/12/07 07:50:12;;;;;;;1.88;1.77;;;6.30;99.90;;;;;;5087000;28;20168;-70
2020/12/07 07:54:00;;;;;;;1.33;1.27;;;6.20;99.90;;;;;;5087976;28;20253;-71
2020/12/07 08:02:01;;;;;;;0.20;0.20;;;6.30;99.90;;;;;;5095447;28;20180;-68
2020/12/07 08:17:52;;;;;;;0.98;0.98;;;6.40;99.90;;;;;;5091454;28;20168;-73
2020/12/07 08:20:21;;;;;;;5.30;2.47;;;6.40;99.90;;;;;;5091498;28;20178;-72
2020/12/07 08:23:07;;;;;;;0.57;0.57;;;6.40;99.90;;;;;;5089435;28;20175;-70
2020/12/07 08:25:50;;;;;;;0.95;0.95;;;6.40;99.90;;;;;;5090694;28;20237;-70
2020/12/07 08:28:28;;;;;;;0.88;0.88;;;6.50;99.90;;;;;;5091125;28;20231;-71
2020/12/07 08:31:13;;;;;;;0.43;0.40;;;6.50;99.90;;;;;;5090832;28;20706;-70
2020/12/07 08:33:59;;;;;;;1.70;1.58;;;6.40;99.90;;;;;;5088449;28;20196;-69
2020/12/07 08:36:28;;;;;;;1.85;1.75;;;6.50;99.90;;;;;;5105762;28;20195;-69
2020/12/07 08:38:54;;;;;;;1.70;1.30;;;6.50;99.90;;;;;;5110121;28;20152;-69
2020/12/07 08:41:22;;;;;;;0.60;0.60;;;6.40;99.90;;;;;;5109533;28;20237;-69
2020/12/07 08:43:51;;;;;;;2.15;2.05;;;6.40;99.90;;;;;;5110501;28;20247;-70
2020/12/07 08:46:22;;;;;;;0.20;0.20;;;6.50;99.90;;;;;;5111436;28;20492;-69
2020/12/07 08:48:48;;;;;;;0.52;0.52;;;6.50;99.90;;;;;;5109563;28;20239;-69
2020/12/07 08:51:14;;;;;;;0.40;0.40;;;6.50;99.90;;;;;;5109701;28;20195;-70
2020/12/07 08:53:41;;;;;;;1.15;1.13;;;6.40;99.90;;;;;;5109797;28;20620;-69
2020/12/07 08:56:09;;;;;;;2.83;1.70;;;6.40;99.90;;;;;;5110403;28;20155;-70
2020/12/07 08:58:36;;;;;;;5.00;1.80;;;6.40;99.90;;;;;;5110877;28;20279;-70
2020/12/07 09:01:04;;;;;;;0.80;0.80;;;6.50;99.90;;;;;;5108082;28;20206;-70
2020/12/07 09:03:30;;;;;;;3.20;2.97;;;6.50;99.90;;;;;;5108811;28;20175;-70
2020/12/07 09:05:56;;;;;;;1.40;1.40;;;6.50;99.90;;;;;;5105949;28;20254;-69
2020/12/07 09:08:22;;;;;;;1.15;1.08;;;6.50;99.90;;;;;;5109488;28;20171;-70
2020/12/07 09:10:48;;;;;;;1.38;1.27;;;6.50;99.90;;;;;;5110913;28;20190;-70
2020/12/07 09:13:14;;;;;;;1.52;1.33;;;6.50;99.90;;;;;;5108838;28;20336;-70
2020/12/07 09:15:40;;;;;;;0.98;0.98;;;6.50;99.90;;;;;;5110651;28;20562;-70
2020/12/07 09:18:06;;;;;;;0.70;0.70;;;6.40;99.90;;;;;;5109454;28;20164;-70
2020/12/07 09:20:31;;;;;;;1.48;1.45;;;6.50;99.90;;;;;;5110590;28;20242;-70
2020/12/07 09:22:57;;;;;;;0.50;0.50;;;6.50;99.90;;;;;;5110265;28;20612;-70
2020/12/07 09:25:23;;;;;;;1.25;1.25;;;6.60;99.90;;;;;;5109154;28;20207;-70
2020/12/07 09:27:49;;;;;;;8.02;2.45;;;6.60;99.90;;;;;;5110238;28;20155;-70
2020/12/07 09:30:15;;;;;;;0.93;0.90;;;6.60;99.90;;;;;;5110379;28;20220;-70
2020/12/07 09:32:41;;;;;;;3.05;2.83;;;6.70;99.90;;;;;;5108753;28;20167;-70
2020/12/07 09:35:08;;;;;;;0.10;0.10;;;6.70;99.90;;;;;;5109952;28;20195;-69
2020/12/07 09:37:35;;;;;;;0.32;0.32;;;6.70;99.90;;;;;;5108235;28;20167;-69
2020/12/07 09:40:02;;;;;;;1.38;1.35;;;6.80;99.90;;;;;;5110143;28;20219;-70
2020/12/07 09:42:28;;;;;;;2.38;2.28;;;6.80;99.90;;;;;;5110004;28;20175;-69
2020/12/07 09:44:54;;;;;;;1.95;1.83;;;6.80;99.90;;;;;;5109447;28;20344;-70
2020/12/07 09:47:20;;;;;;;2.65;2.50;;;6.80;99.90;;;;;;5110176;28;20164;-69
2020/12/07 09:49:45;;;;;;;2.08;1.98;;;6.70;99.90;;;;;;5106802;28;20231;-70
2020/12/07 09:52:11;;;;;;;1.42;1.00;;;6.70;99.90;;;;;;5109508;28;20156;-69
2020/12/07 09:54:38;;;;;;;0.47;0.47;;;6.80;99.90;;;;;;5109779;28;20155;-69
2020/12/07 09:57:08;;;;;;;3.40;2.17;;;6.80;99.90;;;;;;5093651;28;20203;-69
2020/12/07 09:59:35;;;;;;;10.10;1.27;;;6.70;99.90;;;;;;5088999;28;20192;-69
2020/12/07 10:02:02;;;;;;;0.50;0.50;;;6.70;99.90;;;;;;5089252;28;20199;-69
2020/12/07 10:04:29;;;;;;;0.60;0.60;;;6.60;99.90;;;;;;5088965;28;20187;-69
2020/12/07 10:06:55;;;;;;;1.90;1.85;;;6.60;99.90;;;;;;5087883;28;20209;-69
2020/12/07 10:09:20;;;;;;;1.27;1.25;;;6.60;99.90;;;;;;5088989;28;20166;-69
2020/12/07 10:11:47;;;;;;;0.25;0.25;;;6.60;99.90;;;;;;5089235;28;20215;-69
2020/12/07 10:14:13;;;;;;;2.47;1.25;;;6.60;99.90;;;;;;5087254;28;20171;-70
2020/12/07 10:16:43;;;;;;;0.80;0.80;;;6.60;99.90;;;;;;5087253;28;20275;-69
2020/12/07 10:19:11;;;;;;;1.10;1.10;;;6.70;99.90;;;;;;5088845;28;20210;-69
2020/12/07 10:21:37;;;;;;;2.08;1.98;;;6.70;99.90;;;;;;5087818;28;20514;-69
2020/12/07 10:24:03;;;;;;;0.57;0.57;;;6.70;99.90;;;;;;5088209;28;20195;-69
2020/12/07 10:26:29;;;;;;;1.13;1.13;;;6.60;99.90;;;;;;5088624;28;20274;-69
2020/12/07 10:28:55;;;;;;;1.80;1.75;;;6.70;99.90;;;;;;5088935;28;20160;-70
2020/12/07 10:31:22;;;;;;;1.00;0.63;;;6.70;99.90;;;;;;5088267;28;20172;-70
2020/12/07 10:33:49;;;;;;;1.63;1.52;;;6.80;99.90;;;;;;5088964;28;20164;-70
2020/12/07 10:36:16;;;;;;;2.63;2.45;;;6.90;99.90;;;;;;5087513;28;20494;-70
2020/12/07 10:38:43;;;;;;;1.15;1.15;;;6.90;99.90;;;;;;5088681;28;20565;-69
2020/12/07 10:41:10;;;;;;;1.52;1.45;;;7.00;99.90;;;;;;5088756;28;20225;-70
2020/12/07 10:43:36;;;;;;;0.80;0.80;;;7.00;99.90;;;;;;5086934;28;20239;-69
2020/12/07 10:46:03;;;;;;;3.28;2.78;;;7.10;99.90;;;;;;5088426;28;20209;-69
2020/12/07 10:48:29;;;;;;;1.70;1.42;;;7.10;99.90;;;;;;5093860;28;20198;-70
2020/12/07 10:50:56;;;;;;;0.30;0.30;;;7.20;99.90;;;;;;5107916;28;20199;-70
2020/12/07 10:53:23;;;;;;;1.27;1.15;;;7.30;99.90;;;;;;5108882;28;20251;-70
2020/12/07 10:55:50;;;;;;;0.30;0.30;;;7.50;99.90;;;;;;5107512;28;20147;-70
2020/12/07 10:58:16;;;;;;;0.15;0.15;;;7.50;99.90;;;;;;5109050;28;20171;-70
2020/12/07 11:00:42;;;;;;;0.35;0.35;;;7.50;99.90;;;;;;5108534;28;20197;-70
2020/12/07 11:03:08;;;;;;;2.35;1.55;;;7.50;99.90;;;;;;5108880;28;20175;-70
2020/12/07 11:05:34;;;;;;;0.52;0.52;;;7.40;99.90;;;;;;5107333;28;20214;-70
2020/12/07 11:08:02;;;;;;;0.82;0.82;;;7.50;99.90;;;;;;5107560;28;20163;-70
2020/12/07 11:10:28;;;;;;;1.58;1.52;;;7.50;99.90;;;;;;5105720;28;20186;-69
2020/12/07 11:13:01;;;;;;;1.42;1.33;;;7.60;99.90;;;;;;5108670;28;20172;-69
2020/12/07 11:15:27;;;;;;;5.65;1.10;;;7.60;99.90;;;;;;5087605;28;20212;-69
2020/12/07 11:17:53;;;;;;;1.60;1.55;;;7.60;99.90;;;;;;5092933;28;20187;-70
2020/12/07 11:20:19;;;;;;;1.50;1.40;;;7.60;99.90;;;;;;5108670;28;20160;-70
2020/12/07 11:22:45;;;;;;;1.80;1.70;;;7.70;99.90;;;;;;5103589;28;20199;-69
2020/12/07 11:25:10;;;;;;;0.55;0.55;;;7.50;99.90;;;;;;5107222;28;20210;-69
2020/12/07 11:27:36;;;;;;;0.70;0.70;;;7.50;99.90;;;;;;5107560;28;20171;-69
2020/12/07 11:30:03;;;;;;;2.08;1.98;;;7.50;99.90;;;;;;5110359;28;20208;-69
2020/12/07 11:32:29;;;;;;;1.80;1.73;;;7.50;99.90;;;;;;5110569;28;20173;-69
2020/12/07 11:34:55;;;;;;;1.60;1.50;;;7.40;99.90;;;;;;5112226;28;20671;-69
2020/12/07 11:37:21;;;;;;;4.07;2.80;;;7.50;99.90;;;;;;5112234;28;20167;-69
2020/12/07 11:40:08;;;;;;;0.68;0.68;;;7.50;99.90;;;;;;5111828;28;20298;-68
2020/12/07 11:42:42;;;;;;;2.47;2.33;;;7.40;99.90;;;;;;5111337;28;20220;-69
2020/12/07 11:45:08;;;;;;;1.88;1.75;;;7.50;99.90;;;;;;5109508;28;20232;-69
2020/12/07 11:47:34;;;;;;;0.50;0.50;;;7.50;99.90;;;;;;5111961;28;20152;-69
2020/12/07 11:49:59;;;;;;;1.30;1.17;;;7.50;99.90;;;;;;5111793;28;20193;-69
2020/12/07 11:52:25;;;;;;;1.42;1.23;;;7.60;99.90;;;;;;5111334;28;20167;-70
2020/12/07 11:54:51;;;;;;;1.50;1.13;;;7.60;99.90;;;;;;5111273;28;20246;-69
2020/12/07 11:57:17;;;;;;;1.95;1.90;;;7.70;99.90;;;;;;5111181;28;20168;-69
2020/12/07 11:59:42;;;;;;;1.25;0.70;;;7.90;99.90;;;;;;5111797;28;20155;-69
2020/12/07 12:02:08;;;;;;;0.90;0.90;;;8.20;99.90;;;;;;5108947;28;20186;-69
2020/12/07 12:04:34;;;;;;;0.90;0.90;;;8.60;99.90;;;;;;5111161;28;20210;-69
2020/12/07 12:07:00;;;;;;;1.23;1.20;;;8.80;99.90;;;;;;5111468;28;20160;-69
2020/12/07 12:09:26;;;;;;;1.48;1.45;;;8.90;99.90;;;;;;5111443;28;20159;-69
2020/12/07 12:11:52;;;;;;;3.33;2.70;;;8.60;99.90;;;;;;5110000;28;20581;-70
2020/12/07 12:14:18;;;;;;;5.85;2.80;;;8.40;99.90;;;;;;5111095;28;20692;-69
2020/12/07 12:16:43;;;;;;;0.52;0.52;;;8.20;99.90;;;;;;5111357;28;20223;-69
2020/12/07 12:19:11;;;;;;;0.52;0.52;;;8.20;99.90;;;;;;5111000;28;20178;-69
2020/12/07 12:21:38;;;;;;;2.00;1.52;;;8.10;99.90;;;;;;5108766;28;20163;-69
2020/12/07 12:24:05;;;;;;;4.25;1.23;;;8.00;99.90;;;;;;5108869;28;20206;-69
2020/12/07 12:26:33;;;;;;;0.47;0.47;;;8.00;99.90;;;;;;5110084;28;20187;-69
2020/12/07 12:29:00;;;;;;;1.17;1.17;;;8.30;99.90;;;;;;5109241;28;20156;-68
2020/12/07 12:31:26;;;;;;;20.27;1.85;;;8.50;99.90;;;;;;5109135;28;20534;-68
2020/12/07 12:33:53;;;;;;;0.65;0.65;;;8.70;99.90;;;;;;5111067;28;20164;-69
2020/12/07 12:36:21;;;;;;;1.05;1.05;;;8.60;99.90;;;;;;5110587;28;20191;-69
2020/12/07 12:38:48;;;;;;;0.50;0.50;;;8.50;99.90;;;;;;5110795;28;20151;-70
2020/12/07 12:41:15;;;;;;;0.75;0.75;;;8.40;99.90;;;;;;5110247;28;20241;-69
2020/12/07 12:43:41;;;;;;;1.55;1.52;;;8.10;99.90;;;;;;5110454;28;20155;-69
2020/12/07 12:46:07;;;;;;;1.70;0.93;;;8.00;99.90;;;;;;5109009;28;20258;-69
2020/12/07 12:48:34;;;;;;;0.52;0.52;;;7.90;99.90;;;;;;5108331;28;20164;-69
2020/12/07 12:51:01;;;;;;;0.52;0.52;;;8.00;99.90;;;;;;5110598;28;20225;-68
2020/12/07 12:53:30;;;;;;;0.88;0.88;;;7.90;99.90;;;;;;5110700;28;20195;-69
2020/12/07 12:55:57;;;;;;;4.95;2.38;;;7.90;99.90;;;;;;5110118;28;20187;-68
2020/12/07 12:58:23;;;;;;;0.47;0.47;;;8.00;99.90;;;;;;5110682;28;20151;-69
2020/12/07 13:00:49;;;;;;;1.52;1.48;;;8.00;99.90;;;;;;5103661;28;20227;-69
2020/12/07 13:03:16;;;;;;;1.00;0.98;;;8.00;99.90;;;;;;5090349;28;20156;-69
2020/12/07 13:05:42;;;;;;;0.68;0.68;;;8.20;99.90;;;;;;5101342;28;20214;-68
2020/12/07 13:08:08;;;;;;;3.30;2.40;;;8.10;99.90;;;;;;5109793;28;20152;-68
2020/12/07 13:10:34;;;;;;;1.52;1.50;;;8.00;99.90;;;;;;5093842;28;20200;-68
2020/12/07 13:13:00;;;;;;;0.50;0.50;;;8.00;99.90;;;;;;5090155;28;20168;-68
2020/12/07 13:15:28;;;;;;;1.42;1.23;;;8.00;99.90;;;;;;5101782;28;20222;-70
2020/12/07 13:18:03;;;;;;;0.55;0.55;;;8.00;99.90;;;;;;5109788;28;20175;-67
2020/12/07 13:20:58;;;;;;;0.32;0.32;;;7.90;99.90;;;;;;5110125;28;20161;-67
2020/12/07 13:23:32;;;;;;;0.35;0.35;;;7.70;99.90;;;;;;5094079;28;20219;-67
2020/12/07 13:26:26;;;;;;;2.03;1.92;;;7.60;99.90;;;;;;5089620;28;20629;-68